Time,TemperatureF,DewpointF,PressureIn,WindDirection,WindDirectionDegrees,WindSpeedMPH,WindSpeedGustMPH,Humidity,HourlyPrecipIn,Conditions,Clouds,dailyrainin,SoftwareType,DateUTC
2013-05-18 00:03:00,62.0,53.0,30.12,South,174,0.0,2.0,72,0.00,,,0.00,,2013-05-18 04:03:00,
2013-05-18 00:12:00,62.0,53.0,30.12,South,174,0.0,2.0,72,0.00,,,0.00,,2013-05-18 04:12:00,
2013-05-18 00:23:00,62.0,53.0,30.12,South,174,0.0,1.0,73,0.00,,,0.00,,2013-05-18 04:23:00,
2013-05-18 00:33:00,62.0,54.0,30.12,South,175,0.0,2.0,74,0.00,,,0.00,,2013-05-18 04:33:00,
2013-05-18 00:43:00,62.0,54.0,30.12,South,175,0.0,2.0,74,0.00,,,0.00,,2013-05-18 04:43:00,
2013-05-18 00:52:00,62.0,54.0,30.12,South,174,0.0,3.0,74,0.00,,,0.00,,2013-05-18 04:52:00,
2013-05-18 01:02:00,63.0,55.0,30.12,South,174,0.0,3.0,74,0.00,,,0.00,,2013-05-18 05:02:00,
2013-05-18 01:13:00,63.0,55.0,30.12,South,174,0.0,3.0,74,0.00,,,0.00,,2013-05-18 05:13:00,
2013-05-18 01:22:00,63.0,55.0,30.11,South,174,0.0,5.0,75,0.00,,,0.00,,2013-05-18 05:22:00,
2013-05-18 01:32:00,63.0,55.0,30.11,South,174,0.0,2.0,76,0.00,,,0.00,,2013-05-18 05:32:00,
2013-05-18 01:42:00,63.0,55.0,30.11,South,174,0.0,2.0,76,0.00,,,0.00,,2013-05-18 05:42:00,
2013-05-18 01:52:00,62.0,54.0,30.11,South,175,0.0,1.0,76,0.00,,,0.00,,2013-05-18 05:52:00,
2013-05-18 02:02:00,62.0,55.0,30.11,South,174,0.0,1.0,78,0.00,,,0.00,,2013-05-18 06:02:00,
2013-05-18 02:11:00,62.0,55.0,30.11,South,174,0.0,1.0,78,0.00,,,0.00,,2013-05-18 06:11:00,
2013-05-18 02:22:00,62.0,55.0,30.11,South,174,0.0,0.0,79,0.00,,,0.00,,2013-05-18 06:22:00,
2013-05-18 02:32:00,62.0,56.0,30.11,South,174,0.0,1.0,80,0.00,,,0.00,,2013-05-18 06:32:00,
2013-05-18 02:42:00,62.0,56.0,30.11,South,174,0.0,1.0,80,0.00,,,0.00,,2013-05-18 06:42:00,
2013-05-18 02:52:00,62.0,55.0,30.11,South,175,0.0,2.0,79,0.00,,,0.00,,2013-05-18 06:52:00,
2013-05-18 03:01:00,63.0,56.0,30.10,South,174,0.0,3.0,78,0.00,,,0.00,,2013-05-18 07:01:00,
2013-05-18 03:12:00,63.0,56.0,30.10,South,174,0.0,3.0,78,0.00,,,0.00,,2013-05-18 07:12:00,
2013-05-18 03:21:00,62.0,55.0,30.09,South,175,0.0,2.0,79,0.00,,,0.00,,2013-05-18 07:21:00,
2013-05-18 03:32:00,62.0,55.0,30.09,South,174,0.0,1.0,79,0.00,,,0.00,,2013-05-18 07:32:00,
2013-05-18 03:42:00,62.0,55.0,30.09,South,174,0.0,1.0,79,0.00,,,0.00,,2013-05-18 07:42:00,
2013-05-18 03:52:00,62.0,56.0,30.09,South,174,0.0,1.0,80,0.00,,,0.00,,2013-05-18 07:52:00,
2013-05-18 04:02:00,62.0,56.0,30.09,South,174,0.0,1.0,81,0.00,,,0.00,,2013-05-18 08:02:00,
2013-05-18 04:11:00,62.0,56.0,30.09,South,174,0.0,1.0,81,0.00,,,0.00,,2013-05-18 08:11:00,
2013-05-18 04:21:00,62.0,56.0,30.09,South,174,0.0,1.0,81,0.00,,,0.00,,2013-05-18 08:21:00,
2013-05-18 04:32:00,62.0,56.0,30.09,South,174,0.0,0.0,81,0.00,,,0.00,,2013-05-18 08:32:00,
2013-05-18 04:42:00,62.0,56.0,30.09,South,174,0.0,0.0,81,0.00,,,0.00,,2013-05-18 08:42:00,
2013-05-18 04:52:00,62.0,56.0,30.09,South,174,0.0,1.0,81,0.00,,,0.00,,2013-05-18 08:52:00,
2013-05-18 05:02:00,62.0,56.0,30.09,South,174,0.0,1.0,81,0.00,,,0.00,,2013-05-18 09:02:00,
2013-05-18 05:12:00,62.0,56.0,30.09,South,174,0.0,1.0,81,0.00,,,0.00,,2013-05-18 09:12:00,
2013-05-18 05:22:00,62.0,56.0,30.09,South,175,0.0,1.0,82,0.00,,,0.00,,2013-05-18 09:22:00,
2013-05-18 05:33:00,62.0,56.0,30.09,South,174,0.0,1.0,81,0.00,,,0.00,,2013-05-18 09:33:00,
2013-05-18 05:43:00,62.0,56.0,30.09,South,174,0.0,1.0,81,0.00,,,0.00,,2013-05-18 09:43:00,
2013-05-18 05:53:00,62.0,56.0,30.09,South,174,0.0,2.0,81,0.00,,,0.00,,2013-05-18 09:53:00,
2013-05-18 06:03:00,61.0,57.0,30.10,South,174,0.0,1.0,86,0.06,,,0.06,,2013-05-18 10:03:00,
2013-05-18 06:12:00,61.0,57.0,30.10,South,174,0.0,1.0,86,0.06,,,0.06,,2013-05-18 10:12:00,
2013-05-18 06:23:00,59.0,56.0,30.10,South,174,0.0,3.0,91,0.25,,,0.25,,2013-05-18 10:23:00,
2013-05-18 06:33:00,59.0,57.0,30.10,South,175,0.0,2.0,93,0.30,,,0.30,,2013-05-18 10:33:00,
2013-05-18 06:42:00,59.0,57.0,30.10,South,175,0.0,2.0,93,0.30,,,0.30,,2013-05-18 10:42:00,
2013-05-18 06:52:00,59.0,57.0,30.10,South,174,0.0,2.0,94,0.34,,,0.34,,2013-05-18 10:52:00,
2013-05-18 07:03:00,59.0,57.0,30.10,South,174,0.0,2.0,93,0.32,,,0.40,,2013-05-18 11:03:00,
2013-05-18 07:12:00,59.0,57.0,30.10,South,174,0.0,2.0,93,0.32,,,0.40,,2013-05-18 11:12:00,
2013-05-18 07:22:00,59.0,57.0,30.11,South,175,0.0,1.0,94,0.17,,,0.42,,2013-05-18 11:22:00,
2013-05-18 07:33:00,59.0,57.0,30.11,South,175,0.0,1.0,94,0.17,,,0.49,,2013-05-18 11:33:00,
2013-05-18 07:42:00,59.0,57.0,30.11,South,175,0.0,1.0,94,0.17,,,0.49,,2013-05-18 11:42:00,
2013-05-18 07:52:00,59.0,58.0,30.12,South,175,0.0,2.0,95,0.23,,,0.56,,2013-05-18 11:52:00,
2013-05-18 08:02:00,59.0,58.0,30.12,South,175,0.0,2.0,95,0.24,,,0.64,,2013-05-18 12:02:00,
2013-05-18 08:12:00,59.0,58.0,30.12,South,175,0.0,2.0,95,0.24,,,0.64,,2013-05-18 12:12:00,
2013-05-18 08:23:00,59.0,58.0,30.12,South,175,0.0,2.0,95,0.24,,,0.64,,2013-05-18 12:23:00,
2013-05-18 08:33:00,59.0,57.0,30.12,South,173,0.0,2.0,94,0.25,,,0.74,,2013-05-18 12:33:00,
2013-05-18 08:42:00,59.0,57.0,30.12,South,173,0.0,2.0,94,0.25,,,0.74,,2013-05-18 12:42:00,
2013-05-18 08:52:00,59.0,58.0,30.13,South,173,0.0,1.0,95,0.20,,,0.77,,2013-05-18 12:52:00,
2013-05-18 09:01:00,59.0,58.0,30.13,South,173,0.0,0.0,95,0.13,,,0.78,,2013-05-18 13:01:00,
2013-05-18 09:11:00,59.0,58.0,30.13,South,173,0.0,0.0,95,0.13,,,0.78,,2013-05-18 13:11:00,
2013-05-18 09:21:00,59.0,58.0,30.14,South,173,0.0,0.0,95,0.08,,,0.78,,2013-05-18 13:21:00,
2013-05-18 09:33:00,59.0,58.0,30.13,South,174,0.0,2.0,95,0.08,,,0.82,,2013-05-18 13:33:00,
2013-05-18 09:43:00,59.0,58.0,30.13,South,174,0.0,2.0,95,0.08,,,0.82,,2013-05-18 13:43:00,
2013-05-18 09:52:00,58.0,57.0,30.13,South,174,0.0,3.0,95,0.16,,,0.93,,2013-05-18 13:52:00,
2013-05-18 10:04:00,58.0,57.0,30.14,South,175,0.0,2.0,95,0.20,,,0.98,,2013-05-18 14:04:00,
2013-05-18 10:12:00,58.0,57.0,30.14,South,175,0.0,2.0,95,0.20,,,0.98,,2013-05-18 14:12:00,
2013-05-18 10:22:00,58.0,57.0,30.14,South,174,0.0,2.0,95,0.24,,,1.02,,2013-05-18 14:22:00,
2013-05-18 10:33:00,59.0,58.0,30.14,South,175,0.0,2.0,96,0.23,,,1.05,,2013-05-18 14:33:00,
2013-05-18 10:42:00,59.0,58.0,30.14,South,175,0.0,2.0,96,0.23,,,1.05,,2013-05-18 14:42:00,
2013-05-18 10:54:00,59.0,58.0,30.14,South,175,0.0,1.0,96,0.15,,,1.08,,2013-05-18 14:54:00,
2013-05-18 11:03:00,59.0,58.0,30.14,South,175,0.0,1.0,96,0.11,,,1.09,,2013-05-18 15:03:00,
2013-05-18 11:13:00,59.0,58.0,30.14,South,175,0.0,1.0,96,0.11,,,1.09,,2013-05-18 15:13:00,
2013-05-18 11:23:00,60.0,59.0,30.13,South,174,0.0,2.0,96,0.08,,,1.10,,2013-05-18 15:23:00,
2013-05-18 11:33:00,60.0,59.0,30.14,South,174,0.0,3.0,96,0.07,,,1.12,,2013-05-18 15:33:00,
2013-05-18 11:43:00,60.0,59.0,30.14,South,174,0.0,3.0,96,0.07,,,1.12,,2013-05-18 15:43:00,
2013-05-18 11:53:00,60.0,59.0,30.14,South,175,0.0,2.0,96,0.04,,,1.12,,2013-05-18 15:53:00,
2013-05-18 12:03:00,60.0,59.0,30.13,South,174,0.0,3.0,96,0.04,,,1.12,,2013-05-18 16:03:00,
2013-05-18 12:13:00,60.0,59.0,30.13,South,174,0.0,3.0,96,0.04,,,1.12,,2013-05-18 16:13:00,
2013-05-18 12:22:00,60.0,59.0,30.13,South,175,0.0,2.0,96,0.03,,,1.12,,2013-05-18 16:22:00,
2013-05-18 12:33:00,60.0,59.0,30.13,South,174,0.0,2.0,95,0.02,,,1.13,,2013-05-18 16:33:00,
2013-05-18 12:42:00,60.0,59.0,30.13,South,174,0.0,2.0,95,0.02,,,1.13,,2013-05-18 16:42:00,
2013-05-18 12:52:00,60.0,59.0,30.13,South,174,0.0,3.0,96,0.02,,,1.13,,2013-05-18 16:52:00,
2013-05-18 13:03:00,60.0,59.0,30.12,South,174,0.0,2.0,96,0.01,,,1.13,,2013-05-18 17:03:00,
2013-05-18 13:12:00,60.0,59.0,30.12,South,174,0.0,2.0,96,0.01,,,1.13,,2013-05-18 17:12:00,
2013-05-18 13:22:00,61.0,60.0,30.12,South,175,0.0,3.0,96,0.01,,,1.13,,2013-05-18 17:22:00,
2013-05-18 13:33:00,61.0,60.0,30.12,South,175,0.0,3.0,96,0.00,,,1.13,,2013-05-18 17:33:00,
2013-05-18 13:42:00,61.0,60.0,30.12,South,175,0.0,3.0,96,0.00,,,1.13,,2013-05-18 17:42:00,
2013-05-18 13:52:00,60.0,59.0,30.11,South,174,0.0,2.0,95,0.02,,,1.15,,2013-05-18 17:52:00,
2013-05-18 14:01:00,60.0,59.0,30.12,South,174,0.0,2.0,95,0.02,,,1.15,,2013-05-18 18:01:00,
2013-05-18 14:12:00,60.0,59.0,30.12,South,174,0.0,2.0,95,0.02,,,1.15,,2013-05-18 18:12:00,
2013-05-18 14:21:00,60.0,59.0,30.11,South,174,0.0,2.0,96,0.03,,,1.17,,2013-05-18 18:21:00,
2013-05-18 14:32:00,61.0,60.0,30.11,South,174,0.0,1.0,96,0.03,,,1.17,,2013-05-18 18:32:00,
2013-05-18 14:42:00,61.0,60.0,30.11,South,174,0.0,1.0,96,0.03,,,1.17,,2013-05-18 18:42:00,
2013-05-18 14:52:00,61.0,60.0,30.11,South,174,0.0,2.0,95,0.02,,,1.18,,2013-05-18 18:52:00,
2013-05-18 15:02:00,61.0,60.0,30.10,South,174,0.0,2.0,96,0.02,,,1.18,,2013-05-18 19:02:00,
2013-05-18 15:12:00,61.0,60.0,30.10,South,174,0.0,2.0,96,0.02,,,1.18,,2013-05-18 19:12:00,
2013-05-18 15:22:00,62.0,60.0,30.10,South,174,0.0,4.0,93,0.01,,,1.18,,2013-05-18 19:22:00,
2013-05-18 15:32:00,62.0,60.0,30.10,South,175,0.0,2.0,93,0.01,,,1.18,,2013-05-18 19:32:00,
2013-05-18 15:42:00,62.0,60.0,30.10,South,175,0.0,2.0,93,0.01,,,1.18,,2013-05-18 19:42:00,
2013-05-18 15:52:00,61.0,59.0,30.09,South,174,0.0,3.0,94,0.00,,,1.18,,2013-05-18 19:52:00,
2013-05-18 16:02:00,61.0,59.0,30.09,South,174,0.0,2.0,94,0.00,,,1.18,,2013-05-18 20:02:00,
2013-05-18 16:11:00,61.0,59.0,30.09,South,174,0.0,2.0,94,0.00,,,1.18,,2013-05-18 20:11:00,
2013-05-18 16:22:00,61.0,60.0,30.09,South,174,0.0,5.0,95,0.00,,,1.18,,2013-05-18 20:22:00,
2013-05-18 16:32:00,61.0,60.0,30.09,South,174,0.0,3.0,95,0.00,,,1.18,,2013-05-18 20:32:00,
2013-05-18 16:42:00,61.0,60.0,30.09,South,174,0.0,3.0,95,0.00,,,1.18,,2013-05-18 20:42:00,
2013-05-18 16:52:00,61.0,60.0,30.09,South,174,0.0,2.0,95,0.02,,,1.20,,2013-05-18 20:52:00,
2013-05-18 17:01:00,61.0,60.0,30.09,South,174,0.0,2.0,95,0.02,,,1.20,,2013-05-18 21:01:00,
2013-05-18 17:12:00,61.0,60.0,30.09,South,174,0.0,2.0,95,0.02,,,1.20,,2013-05-18 21:12:00,
2013-05-18 17:22:00,62.0,61.0,30.09,South,174,0.0,1.0,95,0.02,,,1.20,,2013-05-18 21:22:00,
2013-05-18 17:33:00,61.0,60.0,30.08,South,174,0.0,3.0,95,0.03,,,1.21,,2013-05-18 21:33:00,
2013-05-18 17:43:00,61.0,60.0,30.08,South,174,0.0,3.0,95,0.03,,,1.21,,2013-05-18 21:43:00,
2013-05-18 17:53:00,61.0,60.0,30.08,South,174,1.0,2.0,95,0.12,,,1.32,,2013-05-18 21:53:00,
2013-05-18 18:03:00,61.0,60.0,30.08,South,174,0.0,4.0,96,0.12,,,1.32,,2013-05-18 22:03:00,
2013-05-18 18:13:00,61.0,60.0,30.08,South,174,0.0,4.0,96,0.12,,,1.32,,2013-05-18 22:13:00,
2013-05-18 18:23:00,60.0,59.0,30.08,South,174,0.0,2.0,96,0.12,,,1.32,,2013-05-18 22:23:00,
2013-05-18 18:33:00,60.0,59.0,30.09,South,174,0.0,2.0,96,0.11,,,1.32,,2013-05-18 22:33:00,
2013-05-18 18:42:00,61.0,60.0,30.09,South,174,0.0,2.0,96,0.00,,,1.32,,2013-05-18 22:42:00,
2013-05-18 18:52:00,61.0,60.0,30.09,South,174,0.0,2.0,96,0.00,,,1.32,,2013-05-18 22:52:00,
2013-05-18 19:02:00,61.0,60.0,30.09,South,174,1.0,5.0,96,0.00,,,1.32,,2013-05-18 23:02:00,
2013-05-18 19:12:00,61.0,60.0,30.09,South,174,1.0,5.0,96,0.00,,,1.32,,2013-05-18 23:12:00,
2013-05-18 19:22:00,60.0,59.0,30.09,South,174,0.0,2.0,96,0.00,,,1.32,,2013-05-18 23:22:00,
2013-05-18 19:32:00,60.0,59.0,30.09,South,174,0.0,2.0,95,0.00,,,1.32,,2013-05-18 23:32:00,
2013-05-18 19:42:00,60.0,59.0,30.09,South,174,0.0,2.0,95,0.00,,,1.32,,2013-05-18 23:42:00,
2013-05-18 19:52:00,60.0,59.0,30.09,South,174,0.0,2.0,95,0.00,,,1.32,,2013-05-18 23:52:00,
2013-05-18 20:01:00,60.0,59.0,30.09,South,175,0.0,2.0,96,0.00,,,1.32,,2013-05-19 00:01:00,
2013-05-18 20:12:00,60.0,59.0,30.09,South,175,0.0,2.0,96,0.00,,,1.32,,2013-05-19 00:12:00,
2013-05-18 20:21:00,60.0,59.0,30.10,South,175,1.0,3.0,96,0.00,,,1.32,,2013-05-19 00:21:00,
2013-05-18 20:32:00,60.0,59.0,30.09,South,174,0.0,1.0,96,0.00,,,1.32,,2013-05-19 00:32:00,
2013-05-18 20:41:00,60.0,59.0,30.09,South,174,0.0,1.0,96,0.00,,,1.32,,2013-05-19 00:41:00,
2013-05-18 20:52:00,60.0,59.0,30.10,South,174,0.0,1.0,96,0.00,,,1.32,,2013-05-19 00:52:00,
2013-05-18 21:01:00,60.0,59.0,30.10,South,174,0.0,2.0,96,0.00,,,1.32,,2013-05-19 01:01:00,
2013-05-18 21:11:00,60.0,59.0,30.10,South,174,0.0,2.0,96,0.00,,,1.32,,2013-05-19 01:11:00,
2013-05-18 21:22:00,60.0,59.0,30.10,South,174,0.0,1.0,96,0.00,,,1.32,,2013-05-19 01:22:00,
2013-05-18 21:32:00,60.0,59.0,30.11,South,174,0.0,1.0,96,0.00,,,1.32,,2013-05-19 01:32:00,
2013-05-18 21:42:00,60.0,59.0,30.11,South,174,0.0,1.0,96,0.00,,,1.32,,2013-05-19 01:42:00,
2013-05-18 21:52:00,60.0,59.0,30.11,South,175,0.0,2.0,96,0.00,,,1.32,,2013-05-19 01:52:00,
2013-05-18 22:02:00,60.0,59.0,30.11,South,174,0.0,2.0,96,0.00,,,1.32,,2013-05-19 02:02:00,
2013-05-18 22:11:00,60.0,59.0,30.11,South,174,0.0,2.0,96,0.00,,,1.32,,2013-05-19 02:11:00,
2013-05-18 22:22:00,60.0,59.0,30.11,South,174,0.0,1.0,96,0.00,,,1.32,,2013-05-19 02:22:00,
2013-05-18 22:32:00,60.0,59.0,30.11,South,174,0.0,2.0,96,0.00,,,1.32,,2013-05-19 02:32:00,
2013-05-18 22:42:00,60.0,59.0,30.11,South,174,0.0,2.0,96,0.00,,,1.32,,2013-05-19 02:42:00,
2013-05-18 22:52:00,60.0,59.0,30.11,South,174,0.0,0.0,96,0.00,,,1.32,,2013-05-19 02:52:00,
2013-05-18 23:01:00,60.0,59.0,30.11,South,174,0.0,0.0,96,0.00,,,1.32,,2013-05-19 03:01:00,
2013-05-18 23:11:00,60.0,59.0,30.11,South,174,0.0,0.0,96,0.00,,,1.32,,2013-05-19 03:11:00,
2013-05-18 23:22:00,60.0,59.0,30.11,South,174,0.0,1.0,96,0.00,,,1.32,,2013-05-19 03:22:00,
2013-05-18 23:33:00,60.0,59.0,30.11,South,174,0.0,1.0,96,0.00,,,1.32,,2013-05-19 03:33:00,
2013-05-18 23:42:00,60.0,59.0,30.11,South,174,0.0,1.0,96,0.00,,,1.32,,2013-05-19 03:42:00,
2013-05-18 23:53:00,60.0,59.0,30.10,South,174,0.0,1.0,96,0.00,,,1.32,,2013-05-19 03:53:00,